Terminal Aerodrome Forecast
Issued by NWS Sioux Falls, SD

Home | Current Version | Previous Version | Text Only | Print | Product List | Glossary On
Versions: 1 2 3 4 5 6 7 8 9 10 11 12 13 14 15 16
000
FTUS43 KFSD 211331 AAA
TAFSUX
TAF AMD
KSUX 211331Z 2114/2212 30013KT P6SM SCT020 OVC025
     FM211500 30015G23KT P6SM OVC028
     FM211800 30016G24KT P6SM BKN040
     FM211900 30016G24KT P6SM SCT045
     FM220000 31010KT P6SM FEW250
     FM220200 23005KT P6SM SCT140=

USA.gov is the U.S. government's official web portal to all federal, state and local government web resources and services.